»·PEaware :: ARG1301 KGEG-KGPI

ARG1301 :: KGEG-KGPI

FLIGHT INFORMATION

Flight Status: Arrived
Operator:
Aerolineas Argentinas
More flights by this operator :: More flights under this callsign
Pilot: Luis S. (63)
Aircraft: BOEING 737-800
(B738)
More flights by this aircraft type
Origin: KGEG Spokane Intl
United States
Destination: KGPI Glacier Park Intl
United States
More flights between these airports :: More routes between these airports
Route: +OLIBY
File this flight plan on PilotEdge
Remarks:
Altitude:
(Current/Filed)
230ft
Speed:
(Current/Filed)
350kts
Departed: 08-Aug-18 07:06 PM
Arrived: 08-Aug-18 07:40 PM
Distance/Time
Traveled:
138nm/0:34
Distance/Time
To Go:
Arrived

Flight Plot

Page will automatically refresh every two minutes.

Flight plan parsing failed; only flown route is shown


Map Options




Map Legend


Flown Route
Filed Route
Departure Airport
Arrival Airport
Navaid (VOR, NDB)
Fix

Horizontal Profiles

Position Reports

Time Latitude Longitude Heading Altitude Ground
Speed
08-Aug-18 18:49 47.624934 -117.534664 5 2384ft 0kts
08-Aug-18 18:50 47.624934 -117.534664 5 2384ft 0kts
08-Aug-18 18:51 47.624934 -117.534664 5 2384ft 0kts
08-Aug-18 18:52 47.624934 -117.534664 5 2384ft 0kts
08-Aug-18 18:53 47.624934 -117.534664 5 2384ft 0kts
08-Aug-18 18:54 47.624934 -117.534664 5 2384ft 0kts
08-Aug-18 18:55 47.624934 -117.534664 5 2384ft 0kts
08-Aug-18 18:56 47.624934 -117.534664 5 2384ft 0kts
08-Aug-18 18:57 47.624934 -117.534664 5 2384ft 0kts
08-Aug-18 18:58 47.624806 -117.534684 5 2384ft 2kts
08-Aug-18 18:59 47.624507 -117.534792 99 2384ft 3kts
08-Aug-18 19:00 47.624278 -117.532822 52 2384ft 9kts
08-Aug-18 19:01 47.625509 -117.530903 46 2384ft 9kts
08-Aug-18 19:02 47.627643 -117.527710 44 2384ft 19kts
08-Aug-18 19:03 47.632096 -117.520987 48 2384ft 0kts
08-Aug-18 19:04 47.632096 -117.520987 48 2384ft 0kts
08-Aug-18 19:05 47.632165 -117.520872 49 2384ft 5kts
08-Aug-18 19:06 47.630905 -117.518753 221 2384ft 0kts
08-Aug-18 19:07 47.623976 -117.529144 223 2385ft 143kts
08-Aug-18 19:08 47.587494 -117.582477 224 4636ft 213kts
08-Aug-18 19:09 47.538361 -117.641679 202 7482ft 263kts
08-Aug-18 19:10 47.478235 -117.585558 97 9922ft 316kts
08-Aug-18 19:11 47.527540 -117.489774 18 12520ft 329kts
08-Aug-18 19:12 47.589880 -117.393238 66 15054ft 347kts
08-Aug-18 19:13 47.624892 -117.258614 68 17556ft 357kts
08-Aug-18 19:14 47.659789 -117.119414 68 19985ft 366kts
08-Aug-18 19:15 47.695196 -116.975197 67 22001ft 380kts
08-Aug-18 19:16 47.732496 -116.822096 67 23055ft 417kts
08-Aug-18 19:17 47.773649 -116.652084 68 23039ft 441kts
08-Aug-18 19:18 47.813740 -116.480640 69 23035ft 439kts
08-Aug-18 19:19 47.852381 -116.309090 69 23035ft 437kts
08-Aug-18 19:20 47.889522 -116.136752 70 23029ft 436kts
08-Aug-18 19:21 47.924903 -115.964060 71 23028ft 436kts
08-Aug-18 19:22 47.957977 -115.795184 72 21736ft 406kts
08-Aug-18 19:23 47.986674 -115.639861 74 20168ft 374kts
08-Aug-18 19:24 48.010770 -115.494509 76 18507ft 352kts
08-Aug-18 19:25 48.026055 -115.352061 82 16526ft 344kts
08-Aug-18 19:26 48.038415 -115.212490 82 14492ft 336kts
08-Aug-18 19:27 48.031428 -115.078225 107 11997ft 322kts
08-Aug-18 19:28 48.003354 -114.955884 109 10081ft 299kts
08-Aug-18 19:29 47.978018 -114.843344 109 9073ft 275kts
08-Aug-18 19:30 47.963513 -114.736998 82 8781ft 253kts
08-Aug-18 19:31 47.975367 -114.641123 79 8271ft 217kts
08-Aug-18 19:32 48.000857 -114.573899 38 8187ft 167kts
08-Aug-18 19:33 48.038458 -114.534103 28 7943ft 169kts
08-Aug-18 19:34 48.079278 -114.495122 27 7037ft 177kts
08-Aug-18 19:35 48.121663 -114.456634 35 5848ft 178kts
08-Aug-18 19:36 48.157160 -114.412383 30 5108ft 160kts
08-Aug-18 19:37 48.193682 -114.375331 33 4876ft 156kts
08-Aug-18 19:38 48.230311 -114.338950 34 4733ft 159kts
08-Aug-18 19:39 48.267718 -114.299916 33 3786ft 164kts
08-Aug-18 19:40 48.302852 -114.263366 34 2987ft 132kts
08-Aug-18 19:41 48.311182 -114.254641 44 2986ft 7kts
08-Aug-18 19:42 48.311684 -114.251337 125 2986ft 9kts
08-Aug-18 19:43 48.310046 -114.250644 266 2986ft 5kts

Navigation Log

Ident Type
Flight plan parsing failed, navigation log unavailable